Time;durP1;ratioP1;P1;durP2;ratioP2;P2;SDS_P1;SDS_P2;PMS_P1;PMS_P2;Temp;Humidity;BMP_temperature;BMP_pressure;BME280_temperature;BME280_humidity;BME280_pressure;Samples;Min_cycle;Max_cycle;Signal;HPM_P1;HPM_P2
2023/12/01 00:02:03;;;;;;;37.40;17.95;;;;;;;2.32;94.02;100312.13;6276276;22;20018;-81
2023/12/01 00:04:29;;;;;;;38.67;18.85;;;;;;;2.21;94.20;100298.69;6276833;22;20407;-81
2023/12/01 00:06:55;;;;;;;37.63;17.80;;;;;;;2.20;93.98;100302.16;6249295;22;20057;-81
2023/12/01 00:09:20;;;;;;;37.63;17.73;;;;;;;2.33;94.36;100328.66;6249820;22;20004;-81
2023/12/01 00:11:45;;;;;;;38.40;17.80;;;;;;;2.29;94.68;100325.03;6276689;22;20073;-81
2023/12/01 00:14:11;;;;;;;40.03;18.85;;;;;;;2.14;94.90;100311.44;6276494;22;20043;-81
2023/12/01 00:16:36;;;;;;;39.63;17.92;;;;;;;2.21;95.38;100331.69;6276614;22;20004;-81
2023/12/01 00:19:02;;;;;;;42.47;19.58;;;;;;;2.19;94.97;100335.97;6276663;22;20004;-81
2023/12/01 00:21:27;;;;;;;43.17;18.33;;;;;;;2.02;95.01;100300.63;6274834;22;20432;-81
2023/12/01 00:23:53;;;;;;;40.35;18.40;;;;;;;2.14;95.61;100332.28;6276133;22;20507;-81
2023/12/01 00:26:18;;;;;;;39.75;17.48;;;;;;;2.11;95.63;100337.44;6249413;22;20034;-81
2023/12/01 00:28:44;;;;;;;40.75;18.05;;;;;;;1.94;95.45;100309.03;6277132;22;20012;-81
2023/12/01 00:31:09;;;;;;;41.45;17.63;;;;;;;2.05;95.66;100340.66;6249582;22;20087;-81
2023/12/01 00:33:34;;;;;;;39.90;17.85;;;;;;;2.06;95.70;100339.88;6277039;22;20011;-81
2023/12/01 00:36:00;;;;;;;42.83;18.73;;;;;;;1.96;96.18;100319.50;6277130;22;20007;-81
2023/12/01 00:38:26;;;;;;;41.35;17.30;;;;;;;2.09;95.75;100346.88;6277079;22;20421;-81
2023/12/01 00:40:51;;;;;;;41.63;17.77;;;;;;;1.95;96.16;100326.44;6275992;22;20012;-82
2023/12/01 00:43:18;;;;;;;40.13;17.38;;;;;;;2.04;96.17;100344.13;6277931;22;20008;-81
2023/12/01 00:45:43;;;;;;;40.83;17.63;;;;;;;1.95;95.94;100338.56;6278282;22;20077;-82
2023/12/01 00:48:08;;;;;;;39.60;17.27;;;;;;;2.03;96.13;100354.50;6252105;22;20049;-81
2023/12/01 00:50:34;;;;;;;39.55;17.52;;;;;;;1.92;95.79;100344.53;6277655;22;20472;-82
2023/12/01 00:52:59;;;;;;;41.10;17.35;;;;;;;2.03;96.67;100359.69;6251346;22;20022;-81
2023/12/01 00:55:25;;;;;;;44.75;18.45;;;;;;;1.87;95.88;100335.66;6251211;22;20012;-81
2023/12/01 00:57:53;;;;;;;42.10;18.10;;;;;;;1.86;96.07;100339.13;6278528;22;20043;-81
2023/12/01 01:00:20;;;;;;;41.60;17.83;;;;;;;1.93;96.44;100356.75;6278512;22;20008;-81
2023/12/01 01:02:45;;;;;;;42.50;17.83;;;;;;;1.85;96.56;100352.97;6276978;22;20015;-81
2023/12/01 01:05:11;;;;;;;42.10;17.63;;;;;;;1.91;96.60;100371.44;6225753;22;20486;-81
2023/12/01 01:07:36;;;;;;;43.90;18.10;;;;;;;1.89;96.80;100367.00;6251717;22;20434;-81
2023/12/01 01:10:02;;;;;;;45.75;18.25;;;;;;;1.75;96.47;100346.50;6277822;22;20007;-81
2023/12/01 01:12:27;;;;;;;45.60;18.08;;;;;;;1.88;96.91;100370.41;6278002;22;20007;-81
2023/12/01 01:14:52;;;;;;;41.08;17.85;;;;;;;1.90;97.20;100367.06;6250785;22;20093;-81
2023/12/01 01:17:18;;;;;;;42.83;18.83;;;;;;;1.91;96.78;100367.94;6277686;22;20011;-81
2023/12/01 01:19:43;;;;;;;48.15;19.17;;;;;;;1.92;96.91;100374.91;6277740;22;20324;-81
2023/12/01 01:22:09;;;;;;;46.28;18.83;;;;;;;1.62;96.78;100328.66;6277505;22;20019;-82
2023/12/01 01:24:34;;;;;;;46.15;18.95;;;;;;;1.96;97.25;100376.81;6277750;22;20007;-82
2023/12/01 01:26:59;;;;;;;45.70;18.63;;;;;;;1.95;97.05;100377.66;6250634;22;20451;-82
2023/12/01 01:29:25;;;;;;;43.50;18.50;;;;;;;1.97;96.66;100386.41;6250993;22;20040;-81
2023/12/01 01:31:50;;;;;;;44.67;17.55;;;;;;;1.86;96.73;100369.50;6278369;22;20549;-82
2023/12/01 01:34:16;;;;;;;44.55;18.67;;;;;;;1.76;97.04;100357.84;6251196;22;20008;-82
2023/12/01 01:36:44;;;;;;;44.55;18.67;;;;;;;1.75;97.06;100371.66;6250632;22;20449;-82
2023/12/01 01:39:10;;;;;;;45.92;17.42;;;;;;;1.78;96.84;100381.34;6252328;22;20018;-82
2023/12/01 01:41:35;;;;;;;45.55;18.83;;;;;;;1.63;96.81;100371.22;6251422;22;20090;-82
2023/12/01 01:44:01;;;;;;;42.75;18.63;;;;;;;1.68;96.95;100382.69;6251176;22;20304;-82
2023/12/01 01:46:26;;;;;;;41.70;17.35;;;;;;;1.62;96.90;100382.44;6245215;22;20012;-82
2023/12/01 01:48:51;;;;;;;44.70;18.27;;;;;;;1.60;97.37;100394.53;6247608;22;20015;-82
2023/12/01 01:51:19;;;;;;;45.80;17.05;;;;;;;1.54;97.88;100392.56;6246629;22;20453;-82
2023/12/01 01:53:44;;;;;;;44.03;17.95;;;;;;;1.50;96.74;100401.09;6245466;23;20006;-82
2023/12/01 01:56:12;;;;;;;46.03;18.60;;;;;;;1.38;97.23;100370.25;6247200;22;20374;-82
2023/12/01 01:58:38;;;;;;;45.95;17.20;;;;;;;1.50;96.70;100401.97;6246725;22;20057;-82
2023/12/01 02:01:07;;;;;;;43.92;16.73;;;;;;;1.49;96.85;100396.69;6245449;23;20035;-82
2023/12/01 02:03:32;;;;;;;44.55;17.25;;;;;;;1.53;96.63;100401.19;6245564;23;20008;-82
2023/12/01 02:05:58;;;;;;;43.13;18.20;;;;;;;1.65;96.33;100403.41;6245408;23;20015;-82
2023/12/01 02:08:28;;;;;;;45.78;16.98;;;;;;;1.68;96.35;100407.03;6246790;22;20008;-82
2023/12/01 02:10:54;;;;;;;47.88;18.63;;;;;;;1.74;96.18;100414.19;6247896;22;20008;-82
2023/12/01 02:13:20;;;;;;;45.10;17.23;;;;;;;1.62;95.96;100396.34;6271214;22;20012;-82
2023/12/01 02:15:47;;;;;;;44.13;17.10;;;;;;;1.71;95.66;100421.88;6247018;22;20110;-81
2023/12/01 02:18:23;;;;;;;47.45;18.40;;;;;;;1.55;95.84;100394.34;6247179;22;20004;-82
2023/12/01 02:20:52;;;;;;;44.17;15.85;;;;;;;1.75;96.58;100411.63;6246721;22;20004;-82
2023/12/01 02:23:17;;;;;;;45.88;17.75;;;;;;;1.32;95.68;100336.16;6245433;23;20008;-82
2023/12/01 02:25:43;;;;;;;52.47;18.52;;;;;;;1.63;95.43;100395.53;6245379;23;20019;-82
2023/12/01 02:28:09;;;;;;;45.63;18.65;;;;;;;1.47;96.13;100372.34;6246819;22;20004;-82
2023/12/01 02:30:34;;;;;;;47.42;17.52;;;;;;;1.67;95.98;100410.47;6244932;23;20004;-82
2023/12/01 02:33:00;;;;;;;47.92;18.48;;;;;;;1.42;96.29;100379.06;6245717;23;20036;-82
2023/12/01 02:35:31;;;;;;;49.78;19.15;;;;;;;1.56;96.17;100403.06;6245306;23;20004;-82
2023/12/01 02:37:57;;;;;;;46.08;17.73;;;;;;;1.61;96.21;100415.41;6271714;22;20015;-82
2023/12/01 02:40:23;;;;;;;47.05;18.45;;;;;;;1.54;96.88;100407.28;6247472;23;20015;-82
2023/12/01 02:42:50;;;;;;;52.47;20.08;;;;;;;1.57;96.27;100415.22;6247361;22;20067;-82
2023/12/01 02:45:17;;;;;;;47.53;18.13;;;;;;;1.60;96.31;100407.56;6256538;22;20011;-82
2023/12/01 02:47:49;;;;;;;43.42;18.17;;;;;;;1.72;96.43;100421.94;6276838;22;20008;-82
2023/12/01 02:50:16;;;;;;;50.13;18.15;;;;;;;1.47;96.77;100388.84;6277241;22;20491;-82
2023/12/01 02:52:41;;;;;;;50.75;19.23;;;;;;;1.57;96.84;100405.69;6276880;22;20004;-82
2023/12/01 02:55:08;;;;;;;50.20;18.63;;;;;;;1.63;96.86;100410.28;6277236;22;20065;-82
2023/12/01 02:57:39;;;;;;;48.17;18.58;;;;;;;1.42;97.11;100381.69;6276813;22;20007;-82
2023/12/01 03:00:06;;;;;;;61.63;20.43;;;;;;;1.16;97.35;100358.09;6277647;22;20091;-82
2023/12/01 03:02:32;;;;;;;51.80;19.23;;;;;;;1.38;98.38;100401.50;6250266;22;20014;-82
2023/12/01 03:04:58;;;;;;;51.80;19.05;;;;;;;1.32;98.53;100387.31;6277054;22;20027;-82
2023/12/01 03:07:23;;;;;;;53.92;20.02;;;;;;;1.40;98.54;100418.03;6276958;22;20010;-82
2023/12/01 03:09:49;;;;;;;54.17;19.48;;;;;;;1.27;98.77;100392.34;6276660;22;20010;-82
2023/12/01 03:12:14;;;;;;;48.35;18.48;;;;;;;1.39;98.93;100415.38;6250132;22;20007;-82
2023/12/01 03:14:40;;;;;;;58.78;20.30;;;;;;;1.32;98.24;100416.84;6250001;22;20357;-81
2023/12/01 03:17:06;;;;;;;54.47;19.27;;;;;;;1.13;98.17;100390.91;6249765;22;20086;-81
2023/12/01 03:19:31;;;;;;;55.08;18.83;;;;;;;1.21;98.53;100415.53;6250597;22;20095;-82
2023/12/01 03:21:57;;;;;;;57.78;19.80;;;;;;;1.28;99.06;100412.34;6249600;22;20035;-82
2023/12/01 03:24:22;;;;;;;55.67;18.88;;;;;;;1.21;99.48;100386.91;6277007;22;20012;-81
2023/12/01 03:26:48;;;;;;;61.40;20.63;;;;;;;1.29;99.10;100395.91;6249866;22;20086;-81
2023/12/01 03:29:14;;;;;;;60.10;20.60;;;;;;;1.44;98.77;100416.47;6276576;22;20011;-82
2023/12/01 03:31:39;;;;;;;56.15;20.50;;;;;;;1.52;98.47;100416.78;6250823;22;20018;-82
2023/12/01 03:34:06;;;;;;;66.93;21.10;;;;;;;1.41;98.55;100400.72;6276898;22;20007;-82
2023/12/01 03:36:31;;;;;;;72.45;22.45;;;;;;;1.45;99.18;100403.50;6249717;22;20061;-82
2023/12/01 03:38:57;;;;;;;64.72;21.67;;;;;;;1.57;98.92;100425.66;6276786;22;20008;-82
2023/12/01 03:41:22;;;;;;;70.43;21.50;;;;;;;1.48;98.93;100427.06;6276834;22;20027;-82
2023/12/01 03:43:47;;;;;;;62.55;19.65;;;;;;;1.38;98.61;100434.44;6276660;22;20015;-82
2023/12/01 03:46:16;;;;;;;62.83;19.80;;;;;;;1.29;98.73;100429.75;6250385;22;20019;-81
2023/12/01 03:48:41;;;;;;;60.50;18.90;;;;;;;1.39;99.17;100434.50;6276790;22;20057;-82
2023/12/01 03:51:09;;;;;;;62.85;19.42;;;;;;;1.40;98.58;100433.66;6249334;22;20011;-82
2023/12/01 03:53:36;;;;;;;53.80;18.13;;;;;;;1.45;98.01;100439.94;6277051;22;20030;-81
2023/12/01 03:56:02;;;;;;;59.55;19.23;;;;;;;1.37;98.20;100430.03;6249534;22;20008;-81
2023/12/01 03:58:27;;;;;;;56.38;17.60;;;;;;;1.54;97.80;100448.94;6276140;22;20023;-82
2023/12/01 04:00:53;;;;;;;56.80;19.13;;;;;;;1.54;96.95;100451.56;6276915;22;20004;-82
2023/12/01 04:03:19;;;;;;;53.58;18.02;;;;;;;1.41;97.53;100419.84;6276390;22;20437;-82
2023/12/01 04:05:44;;;;;;;58.17;18.10;;;;;;;1.49;97.29;100451.38;6276699;22;20004;-82
2023/12/01 04:08:10;;;;;;;53.38;18.05;;;;;;;1.28;97.83;100417.53;6276710;22;20015;-81
2023/12/01 04:10:35;;;;;;;56.00;17.95;;;;;;;1.28;98.01;100424.47;6249391;22;20004;-81
2023/12/01 04:13:07;;;;;;;57.30;19.50;;;;;;;1.24;97.89;100437.38;6249605;22;20058;-82
2023/12/01 04:15:33;;;;;;;60.58;18.90;;;;;;;1.16;98.67;100427.47;6250572;22;20333;-82
2023/12/01 04:18:06;;;;;;;63.22;19.05;;;;;;;1.21;98.57;100452.84;6278824;22;20003;-82
2023/12/01 04:20:35;;;;;;;54.65;18.40;;;;;;;1.20;99.28;100452.75;6254189;22;20011;-81
2023/12/01 04:23:02;;;;;;;58.25;18.85;;;;;;;1.03;99.76;100435.56;6278766;22;20008;-81
2023/12/01 04:25:29;;;;;;;63.13;19.70;;;;;;;1.12;100.00;100465.47;6279007;22;20014;-81
2023/12/01 04:27:56;;;;;;;67.35;20.88;;;;;;;1.05;100.00;100457.34;6278663;22;20003;-81
2023/12/01 04:30:23;;;;;;;61.15;20.83;;;;;;;1.13;100.00;100476.78;6278587;22;20010;-81
2023/12/01 04:32:53;;;;;;;61.10;19.42;;;;;;;1.06;100.00;100457.41;6278868;22;20007;-81
2023/12/01 04:35:23;;;;;;;63.45;20.55;;;;;;;1.17;100.00;100481.28;6277084;22;20014;-81
2023/12/01 04:37:49;;;;;;;56.92;19.55;;;;;;;1.14;100.00;100460.31;6279225;22;20031;-82
2023/12/01 04:40:17;;;;;;;59.13;19.13;;;;;;;1.11;100.00;100450.66;6278483;22;20401;-81
2023/12/01 04:42:47;;;;;;;54.67;18.67;;;;;;;1.21;100.00;100468.47;6278530;22;20003;-81
2023/12/01 04:45:13;;;;;;;60.58;20.85;;;;;;;1.17;100.00;100458.75;6252138;22;20018;-82
2023/12/01 04:47:43;;;;;;;69.82;22.80;;;;;;;1.34;99.88;100484.59;6251416;22;20007;-81
2023/12/01 04:50:14;;;;;;;60.92;21.00;;;;;;;1.36;99.59;100483.81;6278375;22;20007;-81
2023/12/01 04:52:46;;;;;;;63.15;21.02;;;;;;;1.29;99.64;100474.00;6250878;22;20057;-81
2023/12/01 04:55:13;;;;;;;;;;;;;;;1.38;99.84;100500.41;6278779;22;20493;-81
2023/12/01 04:57:39;;;;;;;64.25;20.38;;;;;;;1.30;99.87;100495.72;6278331;22;19910;-81
2023/12/01 05:00:19;;;;;;;67.97;22.52;;;;;;;1.23;100.00;100498.03;6278311;22;20141;-81
2023/12/01 05:03:06;;;;;;;69.20;22.40;;;;;;;1.24;100.00;100491.09;6251243;22;20100;-81
2023/12/01 05:05:34;;;;;;;66.88;22.23;;;;;;;1.23;100.00;100491.94;6276987;22;20086;-81
2023/12/01 05:08:01;;;;;;;72.30;23.08;;;;;;;1.23;100.00;100486.72;6278514;22;20445;-81
2023/12/01 05:10:31;;;;;;;72.22;23.42;;;;;;;1.38;99.91;100513.44;6225780;22;20011;-81
2023/12/01 05:12:59;;;;;;;74.43;23.50;;;;;;;1.19;100.00;100482.22;6251602;22;20007;-81
2023/12/01 05:15:26;;;;;;;72.00;23.48;;;;;;;1.38;100.00;100505.63;6277775;22;20307;-82
2023/12/01 05:17:56;;;;;;;65.35;23.58;;;;;;;1.39;99.62;100516.91;6251349;22;20083;-81
2023/12/01 05:20:25;;;;;;;62.88;22.27;;;;;;;1.29;99.90;100509.56;6278162;22;20043;-81
2023/12/01 05:22:52;;;;;;;57.63;20.88;;;;;;;1.24;98.95;100506.72;6277745;22;20008;-81
2023/12/01 05:25:19;;;;;;;61.97;22.13;;;;;;;1.25;98.82;100521.53;6278082;22;20010;-81
2023/12/01 05:27:49;;;;;;;58.45;21.52;;;;;;;1.10;98.28;100507.84;6277663;22;20008;-81
2023/12/01 05:30:17;;;;;;;56.88;20.33;;;;;;;1.01;98.59;100500.53;6277991;22;20010;-81
2023/12/01 05:32:44;;;;;;;50.28;19.65;;;;;;;1.06;98.55;100508.53;6277507;22;20050;-81
2023/12/01 05:35:10;;;;;;;49.63;20.05;;;;;;;1.06;97.81;100505.94;6277865;22;20284;-81
2023/12/01 05:37:40;;;;;;;53.17;19.58;;;;;;;1.26;97.87;100533.72;6276745;22;20007;-81
2023/12/01 05:40:10;;;;;;;52.50;20.35;;;;;;;1.29;96.97;100531.25;6250767;22;20363;-81
2023/12/01 05:42:36;;;;;;;49.15;19.35;;;;;;;1.22;97.37;100517.09;6277786;22;20004;-81
2023/12/01 05:45:04;;;;;;;48.80;20.38;;;;;;;1.34;96.84;100537.53;6251208;22;20020;-81
2023/12/01 05:47:29;;;;;;;54.88;20.17;;;;;;;1.33;96.89;100527.03;6277917;22;20039;-81
2023/12/01 05:49:55;;;;;;;49.72;19.27;;;;;;;1.38;96.72;100542.06;6278164;22;20011;-81
2023/12/01 05:52:20;;;;;;;49.10;19.15;;;;;;;1.42;97.19;100546.56;6275963;22;20061;-81
2023/12/01 05:54:46;;;;;;;48.47;19.25;;;;;;;1.28;96.99;100521.66;6251020;22;20015;-81
2023/12/01 05:57:11;;;;;;;50.00;19.98;;;;;;;1.36;96.71;100527.19;6225576;22;20011;-81
2023/12/01 05:59:42;;;;;;;48.22;20.30;;;;;;;1.46;95.31;100553.69;6277845;22;20333;-82
2023/12/01 06:02:11;;;;;;;46.13;18.55;;;;;;;1.42;95.78;100551.78;6250586;22;20012;-81
2023/12/01 06:04:38;;;;;;;51.15;20.60;;;;;;;1.41;94.71;100546.47;6251972;22;20485;-81
2023/12/01 06:07:06;;;;;;;50.85;19.73;;;;;;;1.40;95.11;100544.72;6277851;22;20011;-81
2023/12/01 06:09:33;;;;;;;48.83;19.88;;;;;;;1.43;95.08;100555.28;6251610;22;20012;-82
2023/12/01 06:11:58;;;;;;;43.92;19.05;;;;;;;1.44;95.03;100555.31;6277515;22;20000;-81
2023/12/01 06:14:24;;;;;;;44.22;19.33;;;;;;;1.41;94.44;100552.59;6277379;22;19999;-81
2023/12/01 06:16:49;;;;;;;45.70;19.65;;;;;;;1.42;94.08;100554.38;6278212;22;20007;-81
2023/12/01 06:19:15;;;;;;;45.42;18.02;;;;;;;1.37;94.61;100542.88;6250732;22;20008;-82
2023/12/01 06:21:40;;;;;;;47.80;18.98;;;;;;;1.45;94.77;100559.69;6250483;22;20057;-82
2023/12/01 06:24:05;;;;;;;44.08;19.00;;;;;;;1.40;95.04;100549.91;6277712;22;20011;-81
2023/12/01 06:26:31;;;;;;;49.03;19.23;;;;;;;1.24;94.77;100544.06;6278025;22;20154;-82
2023/12/01 06:28:56;;;;;;;42.30;17.70;;;;;;;1.34;94.97;100565.28;6250536;22;20057;-82
2023/12/01 06:31:21;;;;;;;42.88;17.48;;;;;;;1.32;94.73;100556.50;6277572;22;20004;-81
2023/12/01 06:33:47;;;;;;;44.20;18.02;;;;;;;1.38;95.17;100562.00;6250000;22;20012;-81
2023/12/01 06:36:12;;;;;;;44.13;18.52;;;;;;;1.42;94.99;100562.19;6277869;22;20004;-81
2023/12/01 06:38:38;;;;;;;45.30;18.08;;;;;;;1.24;95.10;100524.94;6224487;22;20008;-81
2023/12/01 06:41:04;;;;;;;46.53;18.23;;;;;;;1.36;95.31;100548.00;6249882;22;20397;-81
2023/12/01 06:43:30;;;;;;;42.90;17.65;;;;;;;1.39;95.48;100546.44;6277426;22;20046;-81
2023/12/01 06:45:56;;;;;;;43.55;17.40;;;;;;;1.57;95.32;100563.66;6276950;22;20015;-82
2023/12/01 06:48:21;;;;;;;46.80;18.77;;;;;;;1.62;94.72;100557.81;6249957;22;20015;-81
2023/12/01 06:50:47;;;;;;;43.15;17.83;;;;;;;1.52;94.72;100528.72;6250763;22;20133;-82
2023/12/01 06:53:13;;;;;;;44.08;17.65;;;;;;;1.75;94.64;100564.41;6277657;22;20008;-81
2023/12/01 06:55:39;;;;;;;42.75;18.08;;;;;;;1.82;94.14;100573.38;6277359;22;20010;-81
2023/12/01 06:58:05;;;;;;;41.63;16.33;;;;;;;1.84;94.39;100564.81;6277387;22;20004;-81
2023/12/01 07:00:33;;;;;;;45.53;17.10;;;;;;;1.92;93.40;100572.94;6224809;22;20303;-81
2023/12/01 07:03:04;;;;;;;42.47;16.98;;;;;;;1.79;92.65;100553.28;6277948;22;20377;-81
2023/12/01 07:05:31;;;;;;;36.88;15.93;;;;;;;1.94;93.52;100572.19;6251197;22;20015;-81
2023/12/01 07:07:58;;;;;;;39.85;16.88;;;;;;;1.97;92.99;100579.22;6277958;22;20035;-81
2023/12/01 07:10:23;;;;;;;41.45;17.50;;;;;;;1.99;93.23;100574.97;6277324;22;20484;-81
2023/12/01 07:12:49;;;;;;;42.20;16.95;;;;;;;1.90;92.96;100564.16;6276747;22;20007;-81
2023/12/01 07:15:20;;;;;;;37.13;15.85;;;;;;;1.89;93.03;100563.28;6250715;22;20061;-81
2023/12/01 07:17:50;;;;;;;42.78;16.52;;;;;;;2.03;92.87;100594.22;6277600;22;20011;-81
2023/12/01 07:20:16;;;;;;;39.67;17.10;;;;;;;1.93;92.86;100578.22;6277177;22;20007;-81
2023/12/01 07:22:44;;;;;;;43.92;20.27;;;;;;;1.98;92.57;100589.72;6250100;22;20323;-81
2023/12/01 07:25:11;;;;;;;49.85;18.77;;;;;;;1.92;92.75;100573.81;6225668;22;20019;-82
2023/12/01 07:27:39;;;;;;;41.63;17.20;;;;;;;2.08;92.71;100603.13;6277436;22;20537;-82
2023/12/01 07:30:06;;;;;;;43.85;17.77;;;;;;;1.91;93.20;100572.03;6277027;22;20004;-82
2023/12/01 07:32:34;;;;;;;42.22;18.02;;;;;;;2.02;93.30;100597.66;6277332;22;20170;-81
2023/12/01 07:34:59;;;;;;;41.70;17.13;;;;;;;2.02;93.38;100600.28;6250614;22;20039;-82
2023/12/01 07:37:25;;;;;;;41.83;17.00;;;;;;;1.95;92.97;100586.09;6276758;22;20003;-82
2023/12/01 07:39:50;;;;;;;41.65;17.05;;;;;;;2.01;93.27;100601.97;6224039;22;20314;-82
2023/12/01 07:42:16;;;;;;;39.28;17.15;;;;;;;2.02;93.60;100600.28;6277515;22;20015;-82
2023/12/01 07:44:41;;;;;;;39.65;17.77;;;;;;;2.00;93.60;100595.88;6276439;22;20012;-82
2023/12/01 07:47:11;;;;;;;44.03;17.15;;;;;;;2.00;93.71;100597.59;6225512;22;20015;-81
2023/12/01 07:49:37;;;;;;;40.08;16.48;;;;;;;2.09;94.07;100603.16;6277718;22;20095;-81
2023/12/01 07:52:06;;;;;;;42.10;17.80;;;;;;;2.09;93.71;100600.56;6276093;22;20370;-81
2023/12/01 07:54:31;;;;;;;42.10;17.05;;;;;;;2.13;93.27;100601.56;6277067;22;20003;-81
2023/12/01 07:56:57;;;;;;;40.72;17.23;;;;;;;2.10;93.10;100593.63;6276602;22;20030;-81
2023/12/01 07:59:22;;;;;;;39.78;16.83;;;;;;;2.06;93.31;100597.84;6249558;22;20011;-81
2023/12/01 08:01:48;;;;;;;42.90;17.38;;;;;;;2.02;93.72;100595.94;6276215;22;20426;-81
2023/12/01 08:04:13;;;;;;;42.20;16.70;;;;;;;1.98;93.52;100584.50;6276954;22;20085;-82
2023/12/01 08:06:39;;;;;;;39.78;16.58;;;;;;;2.03;93.80;100594.22;6249539;22;20003;-81
2023/12/01 08:09:04;;;;;;;40.47;16.55;;;;;;;2.02;94.05;100601.16;6276255;22;20008;-81
2023/12/01 08:11:30;;;;;;;38.60;16.50;;;;;;;2.02;93.40;100600.28;6249628;22;20011;-82
2023/12/01 08:13:56;;;;;;;40.10;17.70;;;;;;;2.04;93.96;100599.50;6276393;22;20040;-81
2023/12/01 08:16:21;;;;;;;38.10;16.48;;;;;;;2.04;93.75;100599.50;6249647;22;20007;-81
2023/12/01 08:18:46;;;;;;;39.42;17.35;;;;;;;2.08;94.04;100601.41;6276567;22;20422;-82
2023/12/01 08:21:14;;;;;;;53.53;23.35;;;;;;;2.01;93.55;100601.97;6276242;22;20075;-82
2023/12/01 08:23:40;;;;;;;45.80;18.73;;;;;;;1.75;94.03;100560.09;6249538;22;20008;-81
2023/12/01 08:26:08;;;;;;;40.03;15.68;;;;;;;1.68;94.53;100552.88;6276478;22;20078;-81
2023/12/01 08:28:33;;;;;;;40.75;17.20;;;;;;;2.06;94.48;100620.41;6277256;22;20065;-81
2023/12/01 08:30:59;;;;;;;36.95;16.63;;;;;;;2.04;94.25;100615.13;6276187;22;20007;-81
2023/12/01 08:33:24;;;;;;;40.22;16.05;;;;;;;1.91;94.59;100590.28;6276363;22;20361;-81
2023/12/01 08:35:50;;;;;;;36.90;15.73;;;;;;;1.87;94.72;100595.31;6276609;22;20003;-82
2023/12/01 08:38:15;;;;;;;33.50;15.00;;;;;;;1.91;94.99;100605.03;6249290;22;20494;-82
2023/12/01 08:40:40;;;;;;;35.15;14.48;;;;;;;2.00;95.41;100627.13;6249314;22;20008;-82
2023/12/01 08:43:06;;;;;;;36.47;15.80;;;;;;;1.98;95.56;100625.31;6249390;22;20090;-81
2023/12/01 08:45:32;;;;;;;34.70;14.98;;;;;;;2.03;95.96;100628.09;6249351;22;20023;-82
2023/12/01 08:47:57;;;;;;;32.58;13.80;;;;;;;1.92;95.09;100623.31;6276438;22;20008;-82
2023/12/01 08:50:22;;;;;;;30.70;13.70;;;;;;;1.96;95.40;100626.94;6276562;22;20498;-81
2023/12/01 08:52:48;;;;;;;31.42;13.10;;;;;;;1.90;95.84;100629.31;6276069;22;20012;-82
2023/12/01 08:55:14;;;;;;;30.85;13.50;;;;;;;1.70;95.42;100595.47;6249941;22;20023;-82
2023/12/01 08:57:39;;;;;;;26.35;12.55;;;;;;;1.96;95.43;100634.75;6223949;22;20327;-81
2023/12/01 09:00:06;;;;;;;29.42;12.10;;;;;;;1.97;95.52;100627.03;6276928;22;20011;-82
2023/12/01 09:02:32;;;;;;;25.50;11.70;;;;;;;1.99;95.37;100637.50;6277184;22;20299;-82
2023/12/01 09:04:57;;;;;;;29.92;12.80;;;;;;;1.79;94.16;100608.00;6278387;22;20004;-83
2023/12/01 09:07:23;;;;;;;26.67;11.98;;;;;;;1.81;94.94;100621.09;6250975;22;20004;-81
2023/12/01 09:09:48;;;;;;;27.80;12.10;;;;;;;1.93;95.34;100642.47;6250706;22;20481;-82
2023/12/01 09:12:14;;;;;;;27.17;12.10;;;;;;;1.96;95.23;100643.47;6278470;22;20296;-81
2023/12/01 09:14:40;;;;;;;27.15;12.25;;;;;;;1.94;94.26;100646.84;6278262;22;20062;-81
2023/12/01 09:17:06;;;;;;;26.13;11.50;;;;;;;1.84;93.53;100629.03;6251343;22;20003;-81
2023/12/01 09:19:31;;;;;;;28.00;11.63;;;;;;;1.85;93.27;100642.16;6226026;22;20078;-81
2023/12/01 09:21:56;;;;;;;27.20;11.38;;;;;;;1.84;93.86;100642.06;6277982;22;20008;-82
2023/12/01 09:24:22;;;;;;;27.00;12.57;;;;;;;1.70;93.39;100621.53;6251278;22;20430;-81
2023/12/01 09:26:48;;;;;;;25.55;12.15;;;;;;;1.90;93.45;100658.84;6276754;22;20031;-81
2023/12/01 09:29:16;;;;;;;25.98;11.05;;;;;;;1.91;93.15;100649.31;6278019;22;20030;-86
2023/12/01 09:31:46;;;;;;;24.35;11.18;;;;;;;1.90;92.52;100648.44;6278083;22;20069;-81
2023/12/01 09:34:11;;;;;;;25.13;11.48;;;;;;;1.92;91.90;100658.91;6251743;22;20071;-82
2023/12/01 09:36:38;;;;;;;24.15;11.70;;;;;;;1.90;91.47;100660.56;6251058;22;20299;-83
2023/12/01 09:39:04;;;;;;;25.00;12.13;;;;;;;1.91;91.10;100670.16;6277708;22;20082;-82
2023/12/01 09:41:31;;;;;;;25.98;11.70;;;;;;;1.91;90.96;100667.56;6277959;22;20085;-85
2023/12/01 09:43:57;;;;;;;24.50;11.75;;;;;;;1.85;91.26;100644.75;6277629;22;20010;-84
2023/12/01 09:46:25;;;;;;;27.40;12.43;;;;;;;2.01;91.36;100674.94;6245627;23;20038;-83
2023/12/01 09:48:52;;;;;;;27.17;11.90;;;;;;;2.07;92.01;100677.81;6247618;22;20004;-83
2023/12/01 09:51:17;;;;;;;25.73;11.40;;;;;;;1.99;91.22;100653.13;6245916;23;20004;-83
2023/12/01 09:53:43;;;;;;;29.33;12.07;;;;;;;2.23;91.76;100681.94;6245948;23;20069;-83
2023/12/01 09:56:10;;;;;;;26.30;11.00;;;;;;;2.16;91.35;100659.94;6245698;23;20438;-83
2023/12/01 09:58:36;;;;;;;26.35;11.93;;;;;;;2.31;90.23;100679.63;6247493;22;20004;-83
2023/12/01 10:01:02;;;;;;;24.58;11.25;;;;;;;2.29;90.16;100692.63;6246085;23;20481;-84
2023/12/01 10:03:30;;;;;;;27.08;12.40;;;;;;;2.06;90.46;100657.78;6247084;23;20098;-85
2023/12/01 10:05:58;;;;;;;25.75;11.65;;;;;;;2.18;90.88;100676.50;6245462;23;20504;-83
2023/12/01 10:08:26;;;;;;;29.20;12.70;;;;;;;2.04;90.86;100654.22;6220018;23;20016;-84
2023/12/01 10:10:52;;;;;;;27.98;12.40;;;;;;;1.99;90.81;100656.63;6246950;22;20004;-84
2023/12/01 10:13:17;;;;;;;27.60;12.18;;;;;;;2.13;91.12;100679.78;6244753;23;20011;-83
2023/12/01 10:15:47;;;;;;;26.38;12.07;;;;;;;2.15;91.71;100675.53;6246511;22;20010;-83
2023/12/01 10:18:23;;;;;;;26.42;12.85;;;;;;;2.13;90.06;100682.38;6246839;22;20012;-83
2023/12/01 10:21:07;;;;;;;25.50;11.55;;;;;;;2.16;90.12;100688.63;6246847;22;20036;-84
2023/12/01 10:23:33;;;;;;;29.13;12.40;;;;;;;2.16;91.51;100686.00;6246417;22;20011;-84
2023/12/01 10:26:07;;;;;;;26.42;12.02;;;;;;;2.26;90.97;100689.88;6245137;23;20013;-84
2023/12/01 10:28:40;;;;;;;23.52;11.20;;;;;;;2.18;89.92;100681.72;6246825;22;20012;-83
2023/12/01 10:31:06;;;;;;;24.35;11.32;;;;;;;2.18;89.32;100679.13;6247843;22;20083;-85
2023/12/01 10:33:34;;;;;;;24.55;11.27;;;;;;;2.06;89.37;100664.72;6270639;22;20008;-83
2023/12/01 10:36:07;;;;;;;25.52;11.90;;;;;;;2.15;88.82;100684.22;6245077;23;20079;-83
2023/12/01 10:38:33;;;;;;;28.35;12.32;;;;;;;2.08;88.84;100666.53;6246050;22;20326;-83
2023/12/01 10:41:01;;;;;;;26.20;13.40;;;;;;;2.13;88.62;100678.03;6217378;23;20020;-84
2023/12/01 10:43:30;;;;;;;28.00;13.85;;;;;;;2.18;87.87;100696.47;6244542;22;20000;-84
2023/12/01 10:46:07;;;;;;;24.63;11.70;;;;;;;2.13;88.08;100691.09;6264128;22;20039;-82
2023/12/01 10:48:33;;;;;;;24.35;11.48;;;;;;;2.14;87.92;100684.16;6276406;22;20084;-83
2023/12/01 10:51:03;;;;;;;22.48;10.40;;;;;;;2.09;87.64;100685.69;6276262;22;20008;-83
2023/12/01 10:53:28;;;;;;;23.73;10.85;;;;;;;1.99;88.23;100677.47;6276504;22;20099;-83
2023/12/01 10:55:55;;;;;;;23.33;11.00;;;;;;;1.98;87.35;100670.50;6250235;22;20442;-84
2023/12/01 10:58:22;;;;;;;21.85;10.73;;;;;;;2.14;85.87;100695.50;6278001;22;20018;-85
2023/12/01 11:00:53;;;;;;;21.80;10.95;;;;;;;1.94;87.13;100657.28;6250374;22;20030;-84
2023/12/01 11:03:22;;;;;;;19.80;9.90;;;;;;;1.99;84.88;100663.56;6277242;22;20015;-84
2023/12/01 11:06:01;;;;;;;21.05;10.00;;;;;;;2.06;85.94;100667.31;6276639;22;20007;-83
2023/12/01 11:08:42;;;;;;;22.13;9.55;;;;;;;2.14;86.46;100679.84;6276916;22;20063;-84
2023/12/01 11:11:21;;;;;;;22.90;10.45;;;;;;;2.18;85.99;100671.31;6249954;22;20003;-84
2023/12/01 11:14:06;;;;;;;22.92;10.30;;;;;;;2.30;86.69;100672.66;6250113;22;20003;-82
2023/12/01 11:16:33;;;;;;;23.42;10.73;;;;;;;2.28;86.51;100669.09;6250045;22;20068;-83